地図

経路データ

SID SEASON NUMBER BASIN SUBBASIN NAME ISO_TIME NATURE LAT LON WMO_WIND WMO_PRES WMO_AGENCY TRACK_TYPE DIST2LAND LANDFALL IFLAG USA_AGENCY USA_ATCF_ID USA_LAT USA_LON USA_RECORD USA_STATUS USA_WIND USA_PRES USA_SSHS USA_R34_NE USA_R34_SE USA_R34_SW USA_R34_NW USA_R50_NE USA_R50_SE USA_R50_SW USA_R50_NW USA_R64_NE USA_R64_SE USA_R64_SW USA_R64_NW USA_POCI USA_ROCI USA_RMW USA_EYE TOKYO_LAT TOKYO_LON TOKYO_GRADE TOKYO_WIND TOKYO_PRES TOKYO_R50_DIR TOKYO_R50_LONG TOKYO_R50_SHORT TOKYO_R30_DIR TOKYO_R30_LONG TOKYO_R30_SHORT TOKYO_LAND CMA_LAT CMA_LON CMA_CAT CMA_WIND CMA_PRES HKO_LAT HKO_LON HKO_CAT HKO_WIND HKO_PRES NEWDELHI_LAT NEWDELHI_LON NEWDELHI_GRADE NEWDELHI_WIND NEWDELHI_PRES NEWDELHI_CI NEWDELHI_DP NEWDELHI_POCI REUNION_LAT REUNION_LON REUNION_TYPE REUNION_WIND REUNION_PRES REUNION_TNUM REUNION_CI REUNION_RMW REUNION_R34_NE REUNION_R34_SE REUNION_R34_SW REUNION_R34_NW REUNION_R50_NE REUNION_R50_SE REUNION_R50_SW REUNION_R50_NW REUNION_R64_NE REUNION_R64_SE REUNION_R64_SW REUNION_R64_NW BOM_LAT BOM_LON BOM_TYPE BOM_WIND BOM_PRES BOM_TNUM BOM_CI BOM_RMW BOM_R34_NE BOM_R34_SE BOM_R34_SW BOM_R34_NW BOM_R50_NE BOM_R50_SE BOM_R50_SW BOM_R50_NW BOM_R64_NE BOM_R64_SE BOM_R64_SW BOM_R64_NW BOM_ROCI BOM_POCI BOM_EYE BOM_POS_METHOD BOM_PRES_METHOD NADI_LAT NADI_LON NADI_CAT NADI_WIND NADI_PRES WELLINGTON_LAT WELLINGTON_LON WELLINGTON_WIND WELLINGTON_PRES DS824_LAT DS824_LON DS824_STAGE DS824_WIND DS824_PRES TD9636_LAT TD9636_LON TD9636_STAGE TD9636_WIND TD9636_PRES TD9635_LAT TD9635_LON TD9635_WIND TD9635_PRES TD9635_ROCI NEUMANN_LAT NEUMANN_LON NEUMANN_CLASS NEUMANN_WIND NEUMANN_PRES MLC_LAT MLC_LON MLC_CLASS MLC_WIND MLC_PRES USA_GUST BOM_GUST BOM_GUST_PER REUNION_GUST REUNION_GUST_PER USA_SEAHGT USA_SEARAD_NE USA_SEARAD_SE USA_SEARAD_SW USA_SEARAD_NW STORM_SPEED STORM_DIR
1949084S14157 1949 22 SP EA NOT_NAMED 1949-03-24 12:00:00 TS -14.4000 157.400 bom main 577 577 O_____O__OO___ jtwc_sh SH211949 -14.4000 157.400 -1 -14.4000 157.400 -14.4000 157.400 TC -14.4000 157.400 2 3 162
1949084S14157 1949 22 SP EA NOT_NAMED 1949-03-24 15:00:00 TS -14.5358 157.438 main 587 587 P_____P__PP___ SH211949 -14.5275 157.423 -1 -14.5275 157.423 -14.5275 157.423 TC -14.5609 157.486 2 3 159
1949084S14157 1949 22 SP EA NOT_NAMED 1949-03-24 18:00:00 TS -14.7118 157.522 bom main 602 602 O_____O__OP___ jtwc_sh SH211949 -14.7000 157.500 -1 -14.7000 157.500 -14.7000 157.500 TC -14.7474 157.588 2 5 151
1949084S14157 1949 22 SP EA NOT_NAMED 1949-03-24 21:00:00 TS -14.9626 157.683 main 625 625 P_____P__PP___ SH211949 -14.9550 157.670 -1 -14.9550 157.670 -14.9550 157.670 TC -14.9852 157.721 2 7 148
1949084S14157 1949 22 SP EA NOT_NAMED 1949-03-25 00:00:00 TS -15.3000 157.900 bom main 649 649 O_____O__OO___ jtwc_sh SH211949 -15.3000 157.900 -1 -15.3000 157.900 -15.3000 157.900 TC -15.3000 157.900 2 9 150
1949084S14157 1949 22 SP EA NOT_NAMED 1949-03-25 03:00:00 TS -15.7168 158.135 main 679 679 P_____P__PP___ SH211949 -15.7200 158.135 -1 -15.7200 158.135 -15.7200 158.135 TC -15.7074 158.135 2 10 152
1949084S14157 1949 22 SP EA NOT_NAMED 1949-03-25 06:00:00 TS -16.1957 158.403 bom main 707 688 O_____O__OP___ jtwc_sh SH211949 -16.2000 158.400 -1 -16.2000 158.400 -16.2000 158.400 TC -16.1828 158.412 2 11 151
1949084S14157 1949 22 SP EA NOT_NAMED 1949-03-25 09:00:00 TS -16.6980 158.702 main 688 630 P_____P__PP___ SH211949 -16.7000 158.700 -1 -16.7000 158.700 -16.7000 158.700 TC -16.6917 158.707 2 12 150
1949084S14157 1949 22 SP EA NOT_NAMED 1949-03-25 12:00:00 TS -17.2000 159.000 bom main 630 588 O_____O__OO___ jtwc_sh SH211949 -17.2000 159.000 -1 -17.2000 159.000 -17.2000 159.000 TC -17.2000 159.000 2 11 151
1949084S14157 1949 22 SP EA NOT_NAMED 1949-03-25 15:00:00 TS -17.6449 159.240 main 588 532 P_____P__PP___ SH211949 -17.6574 159.258 -1 -17.6574 159.258 -17.6574 159.258 TC -17.6074 159.187 2 10 153
1949084S14157 1949 22 SP EA NOT_NAMED 1949-03-25 18:00:00 TS -18.0789 159.469 bom main 532 493 O_____O__OP___ jtwc_sh SH211949 -18.1000 159.500 -1 -18.1000 159.500 -18.1000 159.500 TC -18.0158 159.378 2 10 154
1949084S14157 1949 22 SP EA NOT_NAMED 1949-03-25 21:00:00 TS -18.5007 159.681 main 493 443 P_____P__PP___ SH211949 -18.5122 159.698 -1 -18.5122 159.698 -18.5122 159.698 TC -18.4663 159.629 2 11 151
1949084S14157 1949 22 SP MM NOT_NAMED 1949-03-26 00:00:00 TS -19.0000 160.000 bom main 443 374 O_____O__OO___ jtwc_sh SH211949 -19.0000 160.000 -1 -19.0000 160.000 -19.0000 160.000 TC -19.0000 160.000 2 14 145
1949084S14157 1949 22 SP MM NOT_NAMED 1949-03-26 03:00:00 TS -19.6618 160.526 main 371 292 P_____P__PP___ SH211949 -19.6474 160.518 -1 -19.6474 160.518 -19.6474 160.518 TC -19.7049 160.552 2 18 141
1949084S14157 1949 22 SP MM NOT_NAMED 1949-03-26 06:00:00 TS -20.4214 161.208 bom main 292 231 O_____O__OP___ jtwc_sh SH211949 -20.4000 161.200 -1 -20.4000 161.200 -20.4000 161.200 TC -20.4857 161.232 2 21 139
1949084S14157 1949 22 SP MM NOT_NAMED 1949-03-26 09:00:00 TS -21.2356 162.004 main 231 213 P_____P__PP___ SH211949 -21.2230 162.007 -1 -21.2230 162.007 -21.2230 162.007 TC -21.2735 161.996 2 22 137
1949084S14157 1949 22 SP MM NOT_NAMED 1949-03-26 12:00:00 TS -22.0000 162.800 bom main 213 205 O_____O__OO___ jtwc_sh SH211949 -22.0000 162.800 -1 -22.0000 162.800 -22.0000 162.800 TC -22.0000 162.800 2 18 138
1949084S14157 1949 22 SP MM NOT_NAMED 1949-03-26 15:00:00 TS -22.5971 163.332 main 212 204 P_____P__PP___ SH211949 -22.6008 163.315 -1 -22.6008 163.315 -22.6008 163.315 TC -22.5860 163.384 2 15 137
1949084S14157 1949 22 SP MM NOT_NAMED 1949-03-26 18:00:00 TS -23.1006 163.930 bom main 216 211 O_____O__OP___ jtwc_sh SH211949 -23.1000 163.900 -1 -23.1000 163.900 -23.1000 163.900 TC -23.1026 164.022 2 16 126
1949084S14157 1949 22 SP MM NOT_NAMED 1949-03-26 21:00:00 TS -23.5693 164.768 main 214 189 P_____P__PP___ SH211949 -23.5695 164.742 -1 -23.5695 164.742 -23.5695 164.742 TC -23.5687 164.848 2 21 115
1949084S14157 1949 22 SP MM NOT_NAMED 1949-03-27 00:00:00 TS -24.0000 166.000 bom main 192 185 O_____O__OO___ jtwc_sh SH211949 -24.0000 166.000 -1 -24.0000 166.000 -24.0000 166.000 TC -24.0000 166.000 2 29 107
1949084S14157 1949 22 SP MM NOT_NAMED 1949-03-27 03:00:00 TS -24.4235 167.765 main 241 241 P_____P__PP___ SH211949 -24.4238 167.800 -1 -24.4238 167.800 -24.4238 167.800 TC -24.4229 167.659 2 36 103
1949084S14157 1949 22 SP MM NOT_NAMED 1949-03-27 06:00:00 TS -24.7988 169.837 bom main 398 398 O_____O__OP___ jtwc_sh SH211949 -24.8000 169.900 -1 -24.8000 169.900 -24.8000 169.900 TC -24.7953 169.649 2 38 100
1949084S14157 1949 22 SP MM NOT_NAMED 1949-03-27 09:00:00 TS -25.1199 171.911 main 588 588 P_____P__PP___ SH211949 -25.1206 171.944 -1 -25.1206 171.944 -25.1206 171.944 TC -25.1180 171.815 2 38 99
1949084S14157 1949 22 SP MM NOT_NAMED 1949-03-27 12:00:00 TS -25.4000 174.000 bom main 791 791 O_____O__OO___ jtwc_sh SH211949 -25.4000 174.000 -1 -25.4000 174.000 -25.4000 174.000 TC -25.4000 174.000 2 38 98
1949084S14157 1949 22 SP MM NOT_NAMED 1949-03-27 15:00:00 TS -25.6606 176.033 main 850 836 P_____P__PP___ SH211949 -25.6623 176.016 -1 -25.6623 176.016 -25.6623 176.016 TC -25.6558 176.083 2 37 98
1949084S14157 1949 22 SP MM NOT_NAMED 1949-03-27 18:00:00 TS -25.8978 178.018 bom main 849 849 O_____O__OP___ jtwc_sh SH211949 -25.9000 178.000 -1 -25.9000 178.000 -25.9000 178.000 TC -25.8911 178.071 2 36 97
1949084S14157 1949 22 SP MM NOT_NAMED 1949-03-27 21:00:00 TS -26.1111 179.967 main 891 891 P_____P__PP___ SH211949 -26.1126 179.956 -1 -26.1126 179.956 -26.1126 179.956 TC -26.1064 179.999 2 35 97
1949084S14157 1949 22 SP MM NOT_NAMED 1949-03-28 00:00:00 TS -26.3000 181.900 bom main 971 O_____O__OO___ jtwc_sh SH211949 -26.3000 -178.100 -1 -26.3000 -178.100 -26.3000 181.900 TC -26.3000 -178.100 2 35 96

デジタル台風データ・検索

IBTrACS Databaseについて

本データベースは、米国NOAAが公開する1842年以降の世界の熱帯低気圧のベストトラックデータアーカイブInternational Best Track Archive for Climate Stewardship (IBTrACS)を、ウェブで閲覧しやすい形式に変換したものです。

最終更新日:2021-10-08